Nearby METAR Reports

 

EGXV - Leconfield (aut), United Kingdom
Distance from station: PnZd 6mi, 9km
Aktualizacja: Wed, 17-Jan-2018 2:50pm GMT
Częściowe zachmurzenie
Częściowe zachmurzenie
 Wiatr z Zd
Wiatr: Zd 15 mph , 24 km/h
Temperatura: 5°C
Wind Chill: 1°C
Punkt Rosy: 1°C
Wilgotność: 76%
Ciśnienie: 1001 hPa
Clouds: Częściowe zachmurzenie
Visibility: 6 miles , 10 km
Cloud details: Częściowe zachmurzenie 884 m
2018/01/17 14:50 EGXV 171450Z AUTO 26013KT 9999 SCT029/// 05/01 Q1001
EGNJ - Humberside, United Kingdom
Distance from station: Pd 16mi, 26km
Aktualizacja: Wed, 17-Jan-2018 2:50pm GMT
Częściowe zachmurzenie
Częściowe zachmurzenie
 Wiatr z ZdPdZa
Wiatr: ZdPdZa 26 mph , 43 km/h
Temperatura: 6°C
Wind Chill: 1°C
Punkt Rosy: 2°C
Wilgotność: 76%
Ciśnienie: 1002 hPa
Clouds: Częściowe zachmurzenie
Visibility: 6 miles , 10 km
Cloud details: Few Clouds 488 m
Częściowe zachmurzenie 823 m
2018/01/17 14:50 EGNJ 171450Z 25023KT 9999 FEW016 SCT027 06/02 Q1002
EGXS - Donna Nook Raf, United Kingdom
Distance from station: PdWs 30mi, 49km
Aktualizacja: Wed, 17-Jan-2018 2:50pm GMT
Few Clouds
Few Clouds
 Wiatr z ZdPdZa
Wiatr: ZdPdZa 20 mph , 31 km/h, Poryw: 32 mph , 52 km/h
Temperatura: 5°C
Wind Chill: 0°C
Punkt Rosy: 1°C
Wilgotność: 76%
Ciśnienie: 1002 hPa
Clouds: Few Clouds
Visibility: 6 miles , 10 km
Cloud details: Few Clouds 914 m
2018/01/17 14:50 EGXS 171450Z AUTO 25017G28KT 9999 // FEW030/// 05/01 Q1002
 
EGCN - Doncaster Sheffi, United Kingdom
Distance from station: PdZd 35mi, 56km
Aktualizacja: Wed, 17-Jan-2018 2:50pm GMT
Częściowe zachmurzenie
Częściowe zachmurzenie
 Wiatr z ZdPdZa
Wiatr: ZdPdZa 20 mph , 31 km/h
Temperatura: 6°C
Wind Chill: 1°C
Punkt Rosy: 2°C
Wilgotność: 76%
Ciśnienie: 1003 hPa
Clouds: Częściowe zachmurzenie
Visibility: 6 miles , 10 km
Cloud details: Few Clouds 488 m
Częściowe zachmurzenie 640 m
2018/01/17 14:50 EGCN 171450Z 25017KT 9999 FEW016 SCT021 06/02 Q1003
EGXP - Scampton Raf, United Kingdom
Distance from station: PdPdZd 36mi, 58km
Aktualizacja: Wed, 17-Jan-2018 2:50pm GMT
Częściowe zachmurzenie
Częściowe zachmurzenie
 Wiatr z Zd
Wiatr: Zd 23 mph , 37 km/h
Temperatura: 4°C
Wind Chill: -2°C
Punkt Rosy: 2°C
Wilgotność: 87%
Ciśnienie: 1002 hPa
Clouds: Częściowe zachmurzenie
Visibility: 6 miles , 10 km
Cloud details: Częściowe zachmurzenie 914 m
2018/01/17 14:50 EGXP 171450Z 26020KT 9999 SCT030 04/02 Q1002 BLU
EGXU - Linton-On-Ouse R, United Kingdom
Distance from station: ZdPnZd 40mi, 65km
Aktualizacja: Wed, 17-Jan-2018 2:50pm GMT
Few Clouds
Few Clouds
 Wiatr z Zd
Wiatr: Zd 17 mph , 28 km/h
Temperatura: 5°C
Wind Chill: 1°C
Punkt Rosy: 0°C
Wilgotność: 70%
Ciśnienie: 1000 hPa
Clouds: Few Clouds
Visibility: 6 miles , 10 km
Cloud details: Few Clouds 610 m
2018/01/17 14:50 EGXU 171450Z 27015KT 9999 FEW020CB 05/00 Q1000 BLU TEMPO 27018G28KT 7000 SHRA SCT020CB WHT
 
EGXW - Waddington Raf, United Kingdom
Distance from station: Pd 43mi, 70km
Aktualizacja: Wed, 17-Jan-2018 2:50pm GMT
Few Clouds
Few Clouds
 Wiatr z Zd
Wiatr: Zd 18 mph , 30 km/h
Temperatura: 4°C
Wind Chill: -1°C
Punkt Rosy: 1°C
Wilgotność: 81%
Ciśnienie: 1003 hPa
Clouds: Few Clouds
Visibility: 6 miles , 10 km
Cloud details: Few Clouds 853 m
2018/01/17 14:50 EGXW 171450Z 26016KT 9999 FEW028 04/01 Q1003 BLU NOSIG
EGXC - Coningsby Raf, United Kingdom
Distance from station: Pd 49mi, 79km
Aktualizacja: Wed, 17-Jan-2018 2:50pm GMT
Nearby showers, Few clouds
Nearby showers, Few clouds
 Wiatr z Zd
Wiatr: Zd 20 mph , 31 km/h
Temperatura: 6°C
Wind Chill: 1°C
Punkt Rosy: 0°C
Wilgotność: 66%
Ciśnienie: 1003 hPa
Podsumowanie: Nearby Showers
Clouds: Few Clouds
Visibility: 6 miles , 10 km
Cloud details: Few Clouds 853 m
2018/01/17 14:50 EGXC 171450Z 27017KT 9999 VCSH FEW028 06/M00 Q1003 BLU TEMPO 7000 SHRA SCT020 WHT
EGXD - Dishforth Raf, United Kingdom
Distance from station: ZdPnZd 49mi, 79km
Aktualizacja: Mon, 06-Jun-2016 10:50am BST
NOT Current
Bezchmurnie
Bezchmurnie
 Wiatr z PdPdWs
Wiatr: PdPdWs 5 mph , 7 km/h
Temperatura: 18°C
Punkt Rosy: 11°C
Wilgotność: 64%
Ciśnienie: 1023 hPa
Clouds: Bezchmurnie
Visibility: 6 miles , 10 km
2016/06/06 09:50 EGXD 060950Z AUTO 16004KT 9999 // NCD 18/11 Q1023
 
EGXZ - Topcliffe Raf, United Kingdom
Distance from station: ZdPnZd 50mi, 81km
Aktualizacja: Wed, 17-Jan-2018 2:50pm GMT
Few Clouds
Few Clouds
 Wiatr z Zd
Wiatr: Zd 18 mph , 30 km/h
Temperatura: 6°C
Wind Chill: 2°C
Punkt Rosy: 0°C
Wilgotność: 66%
Ciśnienie: 1000 hPa
Clouds: Few Clouds
Visibility: 6 miles , 10 km
Cloud details: Few Clouds 853 m
2018/01/17 14:50 EGXZ 171450Z 26016KT 9999 FEW028 06/M00 Q1000 BLU